Terminal Aerodrome Forecast
Issued by NWS

Current Version | Previous Version | Text Only | Print | Product List | Glossary On
Versions: 1 2 3 4 5 6 7 8 9 10 11 12 13 14 15 16 17 18
000
FTUS42 KTAE 302300
TAFECP
TAF
KECP 302334Z 0100/0124 35005KT P6SM OVC025
     FM010200 08003KT P6SM SCT030
     FM011400 09007KT P6SM FEW035
     FM012000 22007KT P6SM SCT035=

USA.gov is the U.S. government's official web portal to all federal, state and local government web resources and services.